createdAt,value
2022-11-06T00:02:06.874Z,12.29
2022-11-06T00:04:34.225Z,12.08
2022-11-06T00:07:01.766Z,11.94
2022-11-06T00:09:29.037Z,12.07
2022-11-06T00:11:56.678Z,12.07
2022-11-06T00:14:23.976Z,11.85
2022-11-06T00:16:51.486Z,11.79
2022-11-06T00:19:18.885Z,11.87
2022-11-06T00:21:46.345Z,11.97
2022-11-06T00:24:15.505Z,11.88
2022-11-06T00:26:43.159Z,11.78
2022-11-06T00:29:13.930Z,11.99
2022-11-06T00:31:41.177Z,12.15
2022-11-06T00:34:09.872Z,12.14
2022-11-06T00:36:37.108Z,12.10
2022-11-06T00:39:05.507Z,12.10
2022-11-06T00:41:32.730Z,12.24
2022-11-06T00:44:01.141Z,12.01
2022-11-06T00:46:28.655Z,12.15
2022-11-06T00:48:56.564Z,12.01
2022-11-06T00:51:27.862Z,11.95
2022-11-06T00:53:57.725Z,11.94
2022-11-06T00:56:25.595Z,11.96
2022-11-06T00:58:53.178Z,11.92
2022-11-06T01:01:22.915Z,11.91
2022-11-06T01:04:01.732Z,12.11
2022-11-06T01:06:31.573Z,12.02
2022-11-06T01:08:59.332Z,11.92
2022-11-06T01:11:52.340Z,12.10
2022-11-06T01:14:21.287Z,12.12
2022-11-06T01:16:49.128Z,12.32
2022-11-06T01:19:17.897Z,12.07
2022-11-06T01:21:46.636Z,12.07
2022-11-06T01:24:19.115Z,12.09
2022-11-06T01:27:11.948Z,12.06
2022-11-06T01:29:34.290Z,12.17
2022-11-06T01:32:01.674Z,12.19
2022-11-06T01:34:29.074Z,12.37
2022-11-06T01:36:56.315Z,12.33
2022-11-06T01:39:23.601Z,12.32
2022-11-06T01:41:52.991Z,12.12
2022-11-06T01:44:35.495Z,12.03
2022-11-06T01:47:05.690Z,12.03
2022-11-06T01:49:33.709Z,12.03
2022-11-06T01:52:05.277Z,11.98
2022-11-06T01:54:34.861Z,12.01
2022-11-06T01:57:03.624Z,12.19
2022-11-06T01:59:33.107Z,12.25
2022-11-06T02:02:00.515Z,12.27
2022-11-06T02:04:32.022Z,12.22
2022-11-06T02:07:01.152Z,12.05
2022-11-06T02:09:30.273Z,12.05
2022-11-06T02:12:22.502Z,12.08
2022-11-06T02:15:04.261Z,12.13
2022-11-06T02:17:59.844Z,12.20
2022-11-06T02:20:41.386Z,12.20
2022-11-06T02:23:33.267Z,12.05
2022-11-06T02:26:13.513Z,11.95
2022-11-06T02:28:48.100Z,12.17
2022-11-06T02:31:20.508Z,12.05
2022-11-06T02:33:52.392Z,11.93
2022-11-06T02:36:25.929Z,11.98
2022-11-06T02:38:59.278Z,11.90
2022-11-06T02:41:31.670Z,11.90
2022-11-06T02:43:59.481Z,11.89
2022-11-06T02:46:39.833Z,11.78
2022-11-06T02:49:13.962Z,11.67
2022-11-06T02:51:46.422Z,11.64
2022-11-06T02:54:14.567Z,11.73
2022-11-06T02:56:44.987Z,11.74
2022-11-06T02:59:15.321Z,11.81
2022-11-06T03:02:03.657Z,11.90
2022-11-06T03:04:34.812Z,11.95
2022-11-06T03:07:09.279Z,11.99
2022-11-06T03:09:37.059Z,11.98
2022-11-06T03:12:25.535Z,11.81
2022-11-06T03:15:15.142Z,11.83
2022-11-06T03:17:50.921Z,11.83
2022-11-06T03:20:21.968Z,11.98
2022-11-06T03:23:02.325Z,11.99
2022-11-06T03:25:36.752Z,12.16
2022-11-06T03:28:11.044Z,11.88
2022-11-06T03:30:48.523Z,11.67
2022-11-06T03:33:19.771Z,11.56
2022-11-06T03:35:58.215Z,11.50
2022-11-06T03:38:32.318Z,11.47
2022-11-06T03:41:11.384Z,11.53
2022-11-06T03:43:42.603Z,11.65
2022-11-06T03:46:13.916Z,11.60
2022-11-06T03:48:44.685Z,11.66
2022-11-06T03:51:22.022Z,11.68
2022-11-06T03:54:15.494Z,11.74
2022-11-06T03:56:55.399Z,11.81
2022-11-06T03:59:25.348Z,11.92
2022-11-06T04:01:54.169Z,11.72
2022-11-06T04:04:35.793Z,11.58
2022-11-06T04:07:09.711Z,11.56
2022-11-06T04:09:59.744Z,11.57
2022-11-06T04:12:47.094Z,11.54
2022-11-06T04:15:16.959Z,11.44
2022-11-06T04:17:44.318Z,11.43
2022-11-06T04:20:36.285Z,11.56
2022-11-06T04:23:16.424Z,11.37
2022-11-06T04:26:39.138Z,11.18
2022-11-06T04:29:32.754Z,11.18
2022-11-06T04:32:28.801Z,11.23
2022-11-06T04:35:14.231Z,11.18
2022-11-06T04:37:48.315Z,11.16
2022-11-06T04:40:25.308Z,11.32
2022-11-06T04:42:52.577Z,11.25
2022-11-06T04:45:38.834Z,11.48
2022-11-06T04:48:08.241Z,11.45
2022-11-06T04:50:47.682Z,11.58
2022-11-06T04:53:17.132Z,11.38
2022-11-06T04:55:53.526Z,11.49
2022-11-06T04:58:20.906Z,11.40
2022-11-06T05:00:50.199Z,11.65
2022-11-06T05:03:18.164Z,11.62
2022-11-06T05:05:45.602Z,11.62
2022-11-06T05:08:16.195Z,11.58
2022-11-06T05:10:44.345Z,11.43
2022-11-06T05:13:11.970Z,11.25
2022-11-06T05:15:39.509Z,11.05
2022-11-06T05:18:07.272Z,11.15
2022-11-06T05:20:34.813Z,11.01
2022-11-06T05:23:02.086Z,11.13
2022-11-06T05:25:32.341Z,11.15
2022-11-06T05:28:00.535Z,11.25
2022-11-06T05:30:28.135Z,11.44
2022-11-06T05:32:55.483Z,11.13
2022-11-06T05:35:22.745Z,11.04
2022-11-06T05:37:49.975Z,11.07
2022-11-06T05:40:17.547Z,11.30
2022-11-06T05:42:44.917Z,11.21
2022-11-06T05:45:12.511Z,11.30
2022-11-06T05:47:41.727Z,11.30
2022-11-06T05:50:09.813Z,11.45
2022-11-06T05:52:37.906Z,11.08
2022-11-06T05:55:11.609Z,11.23
2022-11-06T05:57:40.685Z,11.04
2022-11-06T06:00:09.085Z,11.07
2022-11-06T06:02:40.001Z,11.14
2022-11-06T06:05:08.073Z,11.35
2022-11-06T06:07:35.655Z,11.46
2022-11-06T06:10:03.291Z,11.37
2022-11-06T06:12:30.542Z,11.53
2022-11-06T06:14:57.884Z,11.31
2022-11-06T06:17:25.286Z,11.51
2022-11-06T06:19:52.562Z,11.44
2022-11-06T06:22:19.792Z,11.34
2022-11-06T06:24:47.249Z,11.34
2022-11-06T06:27:14.608Z,11.35
2022-11-06T06:29:41.863Z,11.21
2022-11-06T06:32:09.230Z,11.30
2022-11-06T06:34:36.471Z,11.39
2022-11-06T06:37:03.704Z,11.56
2022-11-06T06:39:31.186Z,11.42
2022-11-06T06:41:58.827Z,11.08
2022-11-06T06:44:26.209Z,11.05
2022-11-06T06:46:53.558Z,11.24
2022-11-06T06:49:20.796Z,11.31
2022-11-06T06:51:49.036Z,11.21
2022-11-06T06:54:16.511Z,11.37
2022-11-06T06:56:43.871Z,11.25
2022-11-06T06:59:11.263Z,11.08
2022-11-06T07:01:38.819Z,10.92
2022-11-06T07:04:06.535Z,10.98
2022-11-06T07:06:34.901Z,10.92
2022-11-06T07:09:02.237Z,10.85
2022-11-06T07:11:29.665Z,10.86
2022-11-06T07:13:58.050Z,11.02
2022-11-06T07:16:27.438Z,11.05
2022-11-06T07:18:54.762Z,11.01
2022-11-06T07:21:22.235Z,11.02
2022-11-06T07:23:49.511Z,10.98
2022-11-06T07:26:17.049Z,11.07
2022-11-06T07:28:44.270Z,10.91
2022-11-06T07:31:14.836Z,11.03
2022-11-06T07:33:42.233Z,11.09
2022-11-06T07:36:11.877Z,11.17
2022-11-06T07:38:40.964Z,10.99
2022-11-06T07:41:13.433Z,10.92
2022-11-06T07:43:41.572Z,10.92
2022-11-06T07:46:11.354Z,10.90
2022-11-06T07:48:39.587Z,10.81
2022-11-06T07:51:09.284Z,10.97
2022-11-06T07:53:37.110Z,11.08
2022-11-06T07:56:04.685Z,11.11
2022-11-06T07:58:33.319Z,11.12
2022-11-06T08:01:00.985Z,11.13
2022-11-06T08:03:30.283Z,11.16
2022-11-06T08:05:59.361Z,11.06
2022-11-06T08:08:27.856Z,10.93
2022-11-06T08:10:55.154Z,10.91
2022-11-06T08:13:22.335Z,11.10
2022-11-06T08:15:49.910Z,11.22
2022-11-06T08:18:18.553Z,11.30
2022-11-06T08:20:45.955Z,11.34
2022-11-06T08:23:13.664Z,11.23
2022-11-06T08:25:41.015Z,11.37
2022-11-06T08:28:09.464Z,11.27
2022-11-06T08:30:36.918Z,11.21
2022-11-06T08:33:07.524Z,11.34
2022-11-06T08:35:38.041Z,11.46
2022-11-06T08:38:05.294Z,11.31
2022-11-06T08:40:32.933Z,11.28
2022-11-06T08:43:01.819Z,11.45
2022-11-06T08:45:29.372Z,11.43
2022-11-06T08:48:00.992Z,11.47
2022-11-06T08:50:28.660Z,11.65
2022-11-06T08:53:01.288Z,11.41
2022-11-06T08:55:28.963Z,11.39
2022-11-06T08:57:56.341Z,11.35
2022-11-06T09:00:23.915Z,11.39
2022-11-06T09:02:51.303Z,11.10
2022-11-06T09:05:18.555Z,11.03
2022-11-06T09:07:46.276Z,11.10
2022-11-06T09:10:14.176Z,11.64
2022-11-06T09:12:41.555Z,11.53
2022-11-06T09:15:10.236Z,11.27
2022-11-06T09:17:47.806Z,11.31
2022-11-06T09:20:16.376Z,11.37
2022-11-06T09:22:43.599Z,11.32
2022-11-06T09:25:11.346Z,11.28
2022-11-06T09:27:43.300Z,11.25
2022-11-06T09:30:12.469Z,11.17
2022-11-06T09:32:45.687Z,11.13
2022-11-06T09:35:13.313Z,10.91
2022-11-06T09:37:40.854Z,11.08
2022-11-06T09:40:32.953Z,11.29
2022-11-06T09:43:27.275Z,11.25
2022-11-06T09:46:18.077Z,11.11
2022-11-06T09:48:49.044Z,11.14
2022-11-06T09:51:34.092Z,11.36
2022-11-06T09:54:22.006Z,11.14
2022-11-06T09:56:56.314Z,11.07
2022-11-06T09:59:24.651Z,11.15
2022-11-06T10:01:55.354Z,11.25
2022-11-06T10:05:07.031Z,11.41
2022-11-06T10:07:36.885Z,11.43
2022-11-06T10:10:07.638Z,11.11
2022-11-06T10:12:40.816Z,11.16
2022-11-06T10:15:22.637Z,11.10
2022-11-06T10:18:01.647Z,11.09
2022-11-06T10:20:39.318Z,11.08
2022-11-06T10:23:18.796Z,11.47
2022-11-06T10:25:51.931Z,11.34
2022-11-06T10:28:47.140Z,11.35
2022-11-06T10:31:36.727Z,11.47
2022-11-06T10:34:09.908Z,11.28
2022-11-06T10:36:48.733Z,11.38
2022-11-06T10:39:27.190Z,11.38
2022-11-06T10:42:05.207Z,11.39
2022-11-06T10:44:37.780Z,11.38
2022-11-06T10:47:20.176Z,11.73
2022-11-06T10:50:08.422Z,11.53
2022-11-06T10:52:55.299Z,11.38
2022-11-06T10:55:31.588Z,11.29
2022-11-06T10:58:22.749Z,11.38
2022-11-06T11:00:53.115Z,11.57
2022-11-06T11:03:26.697Z,11.60
2022-11-06T11:05:55.640Z,11.29
2022-11-06T11:08:47.026Z,11.38
2022-11-06T11:11:14.255Z,11.45
2022-11-06T11:13:46.273Z,11.24
2022-11-06T11:16:28.617Z,11.39
2022-11-06T11:19:15.321Z,11.34
2022-11-06T11:22:00.200Z,11.57
2022-11-06T11:24:27.773Z,11.42
2022-11-06T11:27:03.092Z,11.52
2022-11-06T11:29:45.277Z,11.70
2022-11-06T11:32:15.097Z,11.58
2022-11-06T11:34:56.608Z,11.58
2022-11-06T11:37:28.191Z,11.46
2022-11-06T11:39:56.012Z,11.44
2022-11-06T11:42:26.246Z,11.50
2022-11-06T11:45:13.922Z,11.55
2022-11-06T11:47:46.912Z,11.30
2022-11-06T11:50:18.572Z,11.55
2022-11-06T11:52:47.381Z,11.48
2022-11-06T11:55:20.300Z,11.55
2022-11-06T11:57:50.129Z,11.69
2022-11-06T12:00:19.800Z,11.55
2022-11-06T12:02:53.478Z,11.45
2022-11-06T12:05:28.626Z,11.69
2022-11-06T12:07:57.565Z,11.67
2022-11-06T12:10:35.116Z,11.62
2022-11-06T12:13:07.617Z,11.72
2022-11-06T12:15:40.894Z,11.59
2022-11-06T12:18:21.737Z,11.72
2022-11-06T12:21:21.270Z,11.75
2022-11-06T12:23:54.309Z,11.70
2022-11-06T12:26:27.570Z,11.59
2022-11-06T12:29:05.876Z,11.95
2022-11-06T12:31:43.179Z,11.67
2022-11-06T12:34:25.406Z,11.88
2022-11-06T12:37:26.035Z,11.67
2022-11-06T12:40:03.532Z,11.60
2022-11-06T12:42:32.330Z,11.41
2022-11-06T12:44:59.884Z,11.59
2022-11-06T12:47:46.323Z,11.60
2022-11-06T12:50:27.095Z,11.66
2022-11-06T12:53:18.727Z,11.67
2022-11-06T12:56:01.617Z,11.55
2022-11-06T12:58:37.776Z,11.74
2022-11-06T13:01:27.761Z,11.70
2022-11-06T13:04:23.180Z,11.73
2022-11-06T13:07:23.562Z,11.76
2022-11-06T13:10:23.285Z,11.65
2022-11-06T13:12:56.614Z,11.74
2022-11-06T13:15:45.288Z,11.88
2022-11-06T13:18:22.835Z,11.81
2022-11-06T13:21:21.900Z,11.69
2022-11-06T13:23:51.331Z,11.70
2022-11-06T13:26:27.851Z,11.70
2022-11-06T13:29:02.521Z,11.80
2022-11-06T13:31:40.199Z,11.79
2022-11-06T13:34:24.929Z,11.71
2022-11-06T13:36:52.962Z,11.96
2022-11-06T13:39:29.967Z,11.98
2022-11-06T13:41:57.954Z,12.04
2022-11-06T13:44:25.597Z,12.12
2022-11-06T13:47:04.894Z,11.80
2022-11-06T13:50:01.257Z,11.87
2022-11-06T13:52:39.606Z,12.16
2022-11-06T13:55:57.178Z,11.92
2022-11-06T13:58:31.958Z,12.17
2022-11-06T14:01:04.915Z,12.31
2022-11-06T14:04:06.806Z,12.06
2022-11-06T14:06:35.485Z,12.33
2022-11-06T14:09:21.315Z,12.19
2022-11-06T14:11:54.814Z,11.92
2022-11-06T14:14:21.976Z,12.04
2022-11-06T14:17:17.040Z,12.33
2022-11-06T14:19:51.088Z,12.24
2022-11-06T14:22:30.596Z,12.28
2022-11-06T14:25:01.582Z,12.16
2022-11-06T14:27:29.648Z,12.09
2022-11-06T14:30:14.980Z,12.16
2022-11-06T14:32:47.607Z,12.29
2022-11-06T14:35:31.057Z,12.38
2022-11-06T14:38:13.467Z,12.35
2022-11-06T14:40:40.979Z,12.59
2022-11-06T14:43:24.577Z,12.60
2022-11-06T14:46:20.626Z,12.71
2022-11-06T14:48:52.127Z,12.61
2022-11-06T14:51:26.378Z,12.66
2022-11-06T14:53:59.383Z,12.50
2022-11-06T14:56:39.734Z,12.56
2022-11-06T14:59:07.606Z,12.63
2022-11-06T15:01:37.374Z,12.69
2022-11-06T15:04:15.772Z,12.43
2022-11-06T15:06:46.027Z,12.73
2022-11-06T15:09:14.267Z,12.78
2022-11-06T15:11:47.931Z,12.77
2022-11-06T15:14:15.221Z,12.77
2022-11-06T15:16:49.775Z,12.71
2022-11-06T15:19:20.582Z,12.71
2022-11-06T15:22:03.475Z,12.53
2022-11-06T15:24:53.867Z,12.55
2022-11-06T15:27:31.150Z,12.71
2022-11-06T15:30:00.854Z,12.70
2022-11-06T15:32:30.666Z,12.63
2022-11-06T15:35:18.382Z,12.66
2022-11-06T15:37:56.074Z,12.76
2022-11-06T15:40:31.655Z,12.77
2022-11-06T15:43:02.385Z,12.71
2022-11-06T15:45:30.073Z,12.94
2022-11-06T15:48:00.064Z,12.69
2022-11-06T15:50:28.538Z,12.75
2022-11-06T15:53:16.092Z,12.81
2022-11-06T15:55:50.916Z,12.93
2022-11-06T15:58:18.122Z,12.89
2022-11-06T16:00:46.002Z,13.00
2022-11-06T16:03:16.031Z,12.89
2022-11-06T16:05:43.575Z,12.90
2022-11-06T16:08:13.022Z,12.91
2022-11-06T16:10:43.698Z,12.85
2022-11-06T16:13:13.040Z,12.91
2022-11-06T16:15:43.837Z,12.96
2022-11-06T16:18:26.103Z,13.14
2022-11-06T16:20:57.411Z,13.12
2022-11-06T16:23:34.834Z,13.13
2022-11-06T16:26:11.735Z,13.23
2022-11-06T16:28:43.795Z,13.22
2022-11-06T16:31:15.942Z,13.21
2022-11-06T16:33:59.960Z,13.29
2022-11-06T16:36:29.672Z,13.39
2022-11-06T16:39:16.786Z,13.34
2022-11-06T16:42:17.498Z,13.30
2022-11-06T16:44:46.432Z,13.18
2022-11-06T16:47:22.380Z,13.15
2022-11-06T16:49:57.356Z,13.15
2022-11-06T16:52:34.885Z,13.24
2022-11-06T16:55:03.221Z,13.41
2022-11-06T16:57:45.644Z,13.36
2022-11-06T17:00:31.127Z,13.28
2022-11-06T17:03:07.451Z,13.38
2022-11-06T17:05:36.958Z,13.37
2022-11-06T17:08:29.918Z,13.44
2022-11-06T17:10:58.447Z,13.50
2022-11-06T17:13:32.052Z,13.52
2022-11-06T17:16:01.657Z,13.58
2022-11-06T17:18:31.073Z,13.46
2022-11-06T17:21:00.932Z,13.52
2022-11-06T17:23:29.289Z,13.39
2022-11-06T17:25:59.955Z,13.44
2022-11-06T17:28:28.242Z,13.56
2022-11-06T17:30:55.896Z,13.56
2022-11-06T17:33:23.189Z,13.54
2022-11-06T17:35:50.631Z,13.62
2022-11-06T17:38:18.218Z,13.60
2022-11-06T17:40:45.830Z,13.56
2022-11-06T17:43:13.869Z,13.57
2022-11-06T17:45:43.194Z,13.46
2022-11-06T17:48:10.482Z,13.56
2022-11-06T17:50:56.347Z,13.54
2022-11-06T17:53:23.826Z,13.64
2022-11-06T17:55:51.145Z,13.66
2022-11-06T17:58:18.557Z,13.70
2022-11-06T18:00:46.492Z,13.75
2022-11-06T18:03:20.809Z,13.72
2022-11-06T18:05:48.475Z,13.62
2022-11-06T18:08:16.667Z,13.66
2022-11-06T18:10:53.017Z,13.64
2022-11-06T18:13:20.253Z,13.77
2022-11-06T18:15:47.636Z,13.65
2022-11-06T18:18:15.479Z,13.51
2022-11-06T18:20:47.391Z,13.51
2022-11-06T18:23:15.879Z,13.48
2022-11-06T18:25:43.469Z,13.74
2022-11-06T18:28:10.783Z,13.75
2022-11-06T18:30:38.789Z,13.70
2022-11-06T18:33:06.119Z,13.57
2022-11-06T18:35:33.335Z,13.54
2022-11-06T18:38:01.372Z,13.74
2022-11-06T18:40:28.641Z,13.61
2022-11-06T18:42:55.910Z,13.63
2022-11-06T18:45:23.183Z,13.70
2022-11-06T18:47:50.971Z,13.69
2022-11-06T18:50:18.340Z,13.79
2022-11-06T18:52:57.497Z,13.90
2022-11-06T18:55:25.477Z,13.91
2022-11-06T18:57:53.453Z,13.96
2022-11-06T19:00:21.296Z,13.92
2022-11-06T19:02:51.458Z,13.96
2022-11-06T19:05:19.164Z,13.99
2022-11-06T19:07:51.157Z,13.84
2022-11-06T19:10:19.256Z,13.86
2022-11-06T19:12:46.449Z,13.83
2022-11-06T19:15:13.717Z,13.79
2022-11-06T19:17:40.884Z,13.91
2022-11-06T19:20:10.828Z,13.86
2022-11-06T19:22:41.113Z,13.92
2022-11-06T19:25:08.799Z,13.78
2022-11-06T19:27:36.191Z,13.71
2022-11-06T19:30:03.635Z,13.78
2022-11-06T19:32:30.851Z,13.90
2022-11-06T19:34:58.166Z,13.96
2022-11-06T19:37:25.423Z,14.06
2022-11-06T19:39:53.389Z,14.00
2022-11-06T19:42:20.741Z,13.97
2022-11-06T19:44:48.204Z,13.89
2022-11-06T19:47:15.562Z,13.91
2022-11-06T19:49:43.001Z,13.93
2022-11-06T19:52:42.973Z,14.22
2022-11-06T19:55:26.142Z,14.09
2022-11-06T19:57:57.431Z,13.96
2022-11-06T20:00:24.598Z,13.86
2022-11-06T20:02:51.878Z,14.00
2022-11-06T20:05:19.350Z,14.10
2022-11-06T20:07:46.623Z,13.97
2022-11-06T20:10:13.925Z,14.04
2022-11-06T20:12:41.164Z,14.10
2022-11-06T20:15:08.827Z,14.04
2022-11-06T20:17:36.238Z,14.07
2022-11-06T20:20:03.677Z,14.20
2022-11-06T20:22:30.928Z,14.03
2022-11-06T20:24:58.206Z,14.07
2022-11-06T20:27:25.469Z,14.15
2022-11-06T20:29:52.828Z,14.00
2022-11-06T20:32:20.140Z,14.04
2022-11-06T20:34:47.773Z,13.97
2022-11-06T20:37:15.011Z,14.01
2022-11-06T20:39:42.445Z,14.18
2022-11-06T20:42:09.657Z,14.21
2022-11-06T20:44:37.258Z,14.10
2022-11-06T20:47:04.621Z,14.12
2022-11-06T20:49:31.869Z,14.05
2022-11-06T20:52:15.468Z,13.88
2022-11-06T20:54:47.177Z,13.94
2022-11-06T20:57:17.621Z,13.95
2022-11-06T20:59:44.996Z,13.90
2022-11-06T21:02:12.371Z,14.12
2022-11-06T21:04:40.000Z,13.98
2022-11-06T21:07:07.289Z,14.18
2022-11-06T21:09:34.479Z,14.23
2022-11-06T21:12:01.756Z,14.13
2022-11-06T21:14:29.236Z,14.19
2022-11-06T21:16:57.252Z,14.10
2022-11-06T21:19:24.693Z,14.11
2022-11-06T21:21:52.323Z,14.11
2022-11-06T21:24:19.728Z,14.00
2022-11-06T21:26:47.006Z,14.07
2022-11-06T21:29:14.457Z,14.28
2022-11-06T21:31:48.552Z,14.19
2022-11-06T21:34:17.484Z,14.12
2022-11-06T21:36:48.168Z,14.16
2022-11-06T21:39:18.453Z,14.07
2022-11-06T21:41:46.667Z,13.93
2022-11-06T21:44:16.404Z,13.92
2022-11-06T21:46:45.709Z,13.89
2022-11-06T21:49:13.885Z,13.92
2022-11-06T21:51:41.674Z,13.89
2022-11-06T21:54:30.340Z,13.91
2022-11-06T21:56:57.672Z,13.86
2022-11-06T21:59:27.007Z,13.94
2022-11-06T22:01:54.660Z,13.81
2022-11-06T22:04:22.452Z,13.69
2022-11-06T22:06:49.643Z,13.69
2022-11-06T22:09:21.941Z,13.79
2022-11-06T22:11:51.919Z,13.74
2022-11-06T22:14:19.317Z,13.77
2022-11-06T22:16:47.816Z,13.77
2022-11-06T22:19:16.155Z,13.73
2022-11-06T22:21:43.694Z,13.77
2022-11-06T22:24:12.853Z,13.85
2022-11-06T22:26:40.647Z,14.01
2022-11-06T22:29:10.924Z,13.96
2022-11-06T22:31:38.549Z,13.83
2022-11-06T22:34:05.784Z,13.76
2022-11-06T22:36:33.066Z,13.83
2022-11-06T22:39:04.705Z,13.70
2022-11-06T22:41:32.204Z,13.81
2022-11-06T22:43:59.708Z,14.52
2022-11-06T22:46:28.979Z,14.84
2022-11-06T22:48:57.131Z,14.32
2022-11-06T22:51:29.222Z,13.95
2022-11-06T22:53:56.631Z,13.99
2022-11-06T22:56:25.032Z,13.98
2022-11-06T22:58:56.228Z,13.83
2022-11-06T23:01:25.449Z,13.98
2022-11-06T23:03:56.930Z,13.80
2022-11-06T23:06:25.659Z,13.68
2022-11-06T23:08:53.464Z,13.75
2022-11-06T23:11:21.809Z,13.81
2022-11-06T23:13:49.034Z,13.74
2022-11-06T23:16:50.357Z,13.61
2022-11-06T23:19:19.914Z,13.72
2022-11-06T23:21:47.243Z,13.65
2022-11-06T23:24:14.706Z,13.70
2022-11-06T23:26:43.683Z,13.73
2022-11-06T23:29:11.274Z,13.70
2022-11-06T23:31:38.523Z,13.71
2022-11-06T23:34:05.904Z,13.69
2022-11-06T23:36:33.232Z,13.67
2022-11-06T23:39:00.533Z,13.73
2022-11-06T23:41:43.483Z,13.76
2022-11-06T23:44:30.869Z,13.62
2022-11-06T23:46:58.279Z,13.77
2022-11-06T23:49:25.504Z,13.75
2022-11-06T23:51:53.035Z,13.58
2022-11-06T23:54:20.695Z,13.66
2022-11-06T23:56:47.889Z,13.56
2022-11-06T23:59:15.222Z,13.62
